Lake Los Angeles, California
Current Conditions -  °F | °C
As of 7:53 PM on Thursday 18 Dec 2014 (Local Time) from KPMD Reporting Station
Clear Clear  
Wind Chill: 39°   Ceiling: Unl
Heat Index: 43°   Visibility: 10mi
Dew Point: 37°   Wind: 7mph
Humidity: 80%   Direction: 200°SSW
Pressure: 30.22"   Gusts: NA
Location:  34.4834°N, 118.08°W
Report Text: KPMD 190353Z AUTO 20006KT 10SM CLR 06/03 A3022 RMK AO2 SLP239 T00610028
Loading
Personal Weather Stations






























Interactive Weather Map New forecast layout! Learn more

10-Day Weather Forecast

Advertisements
Track Severe Weather on mobile